الصفحة الرئيسية
METAR-TAF:

METAR-TAF

مطار :

Saint Paul Island, ألاسكا, الولايات المتحدة

دائرة عرض: 57-10N, خط طول: 170-13W, ارتفاع: 19 متر

مراقبة الطقس الحالي

تاريخ ووقت الإصدار 13 دقيقة قبل الساعة 00:53UTC
ريح 9 عقدة من الشمال
درجة الحرارة 9°درجة مئوية
الرطوبة 76%
ضغط 1019 hPa
الرؤية: 16.1 كم
ملبد بالغيوم على ارتفاع 1300 قدم

METAR: PASN 180053Z AUTO 36009KT 10SM OVC013 09/05 A3008 RMK AO2 SLP187 T00940050 TSNO

زمن: 17:06 (01:06 UTC)

توقعات

تاريخ ووقت الإصدار 1ساعة و 45 دقيقة قبل الساعة 23:21UTC
التوقعات صالحة من18 الساعة 00 UTC إلى 18 الساعة 24 UTC
ريح 8 عقدة من الشمال
الرؤية: 10 كم
ملبد بالغيوم على ارتفاع 900 قدم
مؤقت
من 18 الساعة 00 UTC إلى 18 الساعة 04 UTC
ملبد بالغيوم على ارتفاع 1200 قدم
من 18 الساعة 0600 UTC
ريح 3 عقدةمن اتجاهات متغيرة
الرؤية: 10 كم
ملبد بالغيوم على ارتفاع 400 قدم

TAF: PASN 172321Z 1800/1824 35008KT P6SM OVC009 TEMPO 1800/1804 OVC012 FM180600 VRB03KT P6SM OVC004

أرصاد الطقس والتوقعات من أكثر من 4000 مطار (تقارير الطقس للمطار METAR والتنبؤ بالطقس بالمطارTAF).

المحطات المتاحة هي النقط الصفراء والحمراء على الخريطة.

حرك المؤشر فوق النقطة لمعرفة اسم المحطة.

ثم انقر لمعرفة أرصاد وتوقعات الطقس.

لتغيير الخارطة: اضغط على الأزرار الخضراء مع رمز الصليب الأسود للتكبير. على الزر الأخضر مع شرطة للتصغير، أو على الأسهم الخضراء للخرائط المجاورة.


METAR-TAF: